Aeroporto :
LOGIN :

Iscrizione | Disclaimer

   EN    FR    IT 

 










Sommario :    VFR   VFR Marginale   IFR   IFR Intensivo   IFR Molto Intensivo
Visibilità : 
Base nubi : 
>= 8 km
>= 3000ft
5 / 8 km
1000 / 3000 ft
1500m / 5 km
500 / 1000 ft
800 / 1500m
200 / 500 ft
< 800m
< 200 ft
Simboli :   Temporali  Nebbia  Neve Forte  Precipitazioni Forti  Vento > 20 kt
SIGMETs :   Varie  Temporali  Ghiacco  Turbolenza  Onda orograficha  Ceneri Vulcaniche






- Altitudine del aeroporto : 209 ft
- Codice IATA : CLY


LFKC - Calvi

ULTIMO METAR :
  • 191930Z AUTO 22010KT 190V250 CAVOK 12/05 Q1022

METARs OBSOLETI :
  • 191900Z AUTO 20010KT CAVOK 12/05 Q1022 NOSIG
  • 191800Z AUTO 20011KT CAVOK 12/05 Q1022 NOSIG
  • 191730Z AUTO 19012KT CAVOK 12/06 Q1021 NOSIG
  • 191700Z AUTO 19011KT CAVOK 13/06 Q1021 NOSIG

TAF TAF LFKC
Valido dal 19 a 15 ore il 20 a 15 ore UTC


191400Z 1915/2015 21010KT 9999 FEW035 TX16/2012Z TN06/2004Z
BECMG 2009/2011 35010KT
ATIS : +33 4 95 65 82 49



MetMap, La meteo Aeronautica in un colpo d'occhio ! - Copyright ORBIFLY Dicembre 2007 - Disclaimer

ORBIFLY MET'MAP TEAM :

Programmazione e sviluppo : Alexandra Zaïnal
Concezione : Baudouin d'Aumeries
Aiuto per la programmazione : Marc-Olivier Méhu
Supporto tecnico e logistico : Manuel Goepfert
Aiuto per la traduzione : Arnaldo La Scala

Contatto : metmap@orbifly.com




FONTI E CREDITI :

   NOAA